PORT of MAPUTO

Tara: Mozambique Tara: Mozambique (MZ)
Latitudine/Longitudine: -25.97° / 32.564° Arata pe harta Arata pe harta
Ora locala:  UTC +2
UN/LOCODE: MZMPM
Nave actualmente in port: 15
Sosiri asteptate: 14

Sosiri si plecari recente


Numele navei
Sosire (UTC)
Sosire (LT)
Plecare (UTC)
Plecare (LT)
Vessel Type: Remorcher, Pilotina  PILOTOS P8 2014-10-21 23:00:00 2014-10-22 01:00:00 2014-10-22 01:35:00 2014-10-22 03:35:00
Vessel Type: Cargo  GEORGIANNA BO 2014-10-22 01:05:00 2014-10-22 03:05:00 2014-10-22 01:27:00 2014-10-22 03:27:00
Vessel Type: Remorcher, Pilotina  SEREIA 2014-10-22 01:03:00 2014-10-22 03:03:00
Vessel Type: Remorcher, Pilotina  BULANI 2014-10-22 01:01:00 2014-10-22 03:01:00
Vessel Type: Remorcher, Pilotina  SEREIA 2014-10-21 15:57:00 2014-10-21 17:57:00 2014-10-21 23:40:00 2014-10-22 01:40:00
Vessel Type: Remorcher, Pilotina  BULANI 2014-10-21 15:54:00 2014-10-21 17:54:00 2014-10-21 23:39:00 2014-10-22 01:39:00
Vessel Type: Cargo  GLOVIS SUPERIOR 2014-10-21 13:43:00 2014-10-21 15:43:00 2014-10-21 20:35:00 2014-10-21 22:35:00
Vessel Type: Remorcher, Pilotina  PILOTOS P8 2014-10-21 15:07:00 2014-10-21 17:07:00 2014-10-21 16:39:00 2014-10-21 18:39:00
Vessel Type: Cargo  GIORGOS B 2014-10-21 15:57:00 2014-10-21 17:57:00 2014-10-21 16:19:00 2014-10-21 18:19:00
Vessel Type: Remorcher, Pilotina  ITALENI 2014-10-21 15:15:00 2014-10-21 17:15:00

Sosiri asteptate


Numele navei
Scheduled Arrival (UTC)
Programul sosirilor(ora locala)
Timp estimativ de sosire (UTC)
Timp estimativ de sosire(ora locala)
Vessel Type: Cargo  MSC JASMINE 2014-10-21 22:00:00 2014-10-22 00:00:00
Vessel Type: Cargo  BLACK RHINO 2014-10-21 22:00:00 2014-10-22 00:00:00 2014-10-22 03:51:00 2014-10-22 05:51:00
Vessel Type: Cargo  WHITE HAWK 2014-10-22 19:00:00 2014-10-22 21:00:00 2014-10-22 19:28:00 2014-10-22 21:28:00
Vessel Type: Cargo  KING BATON ROUGE 2014-10-23 04:00:00 2014-10-23 06:00:00 2014-10-24 02:41:00 2014-10-24 04:41:00
Vessel Type: Cargo  RUBY ACE 2014-10-23 06:30:00 2014-10-23 08:30:00 2014-10-23 05:11:00 2014-10-23 07:11:00
Vessel Type: Tancuri petroliere  LATGALE 2014-10-24 02:00:00 2014-10-24 04:00:00 2014-10-24 09:02:00 2014-10-24 11:02:00
Vessel Type: Cargo  ALMASI 2014-10-26 02:00:00 2014-10-26 04:00:00 2014-11-17 23:10:00 2014-11-18 01:10:00
Vessel Type: Cargo  CHINA FROST 2014-10-26 08:30:00 2014-10-26 10:30:00 2014-10-26 11:18:00 2014-10-26 13:18:00
Vessel Type: Cargo  CS SALINA 2014-10-27 01:00:00 2014-10-27 03:00:00 2014-10-28 01:11:00 2014-10-28 03:11:00
Vessel Type: Remorcher, Pilotina  L'ATALANTE 2014-10-28 15:00:00 2014-10-28 17:00:00

Wind Forecast


    
Timp(UTC)
Viteza
Direction
Temperature
2014-10-22 03:00:00 9 knots 165° 21°C
2014-10-22 06:00:00 9 knots 169° 22°C
2014-10-22 09:00:00 9 knots 144° 24°C
2014-10-22 12:00:00 10 knots 119° 24°C
2014-10-22 15:00:00 12 knots 124° 23°C
2014-10-22 18:00:00 8 knots 126° 22°C
2014-10-22 21:00:00 5 knots 133° 22°C
2014-10-23 00:00:00 5 knots 140° 21°C
2014-10-23 03:00:00 6 knots 145° 20°C
2014-10-23 06:00:00 3 knots 130° 22°C
2014-10-23 09:00:00 7 knots 97° 24°C
2014-10-23 12:00:00 10 knots 85° 24°C
2014-10-23 15:00:00 11 knots 80° 23°C
2014-10-23 18:00:00 8 knots 73° 22°C
2014-10-23 21:00:00 7 knots 68° 21°C
2014-10-24 00:00:00 5 knots 47° 22°C